createdAt,value
2018-05-07T00:01:43.224Z,1.10
2018-05-07T00:04:47.616Z,1.50
2018-05-07T00:07:51.062Z,1.33
2018-05-07T00:10:54.425Z,1.60
2018-05-07T00:13:57.712Z,1.43
2018-05-07T00:17:02.002Z,1.37
2018-05-07T00:20:05.335Z,1.90
2018-05-07T00:23:08.648Z,1.73
2018-05-07T00:26:11.960Z,1.50
2018-05-07T00:29:15.330Z,1.70
2018-05-07T00:32:18.754Z,1.70
2018-05-07T00:35:22.040Z,1.60
2018-05-07T00:38:33.358Z,1.40
2018-05-07T00:41:36.675Z,1.40
2018-05-07T00:44:40.924Z,1.50
2018-05-07T00:47:44.315Z,1.60
2018-05-07T00:50:47.640Z,1.60
2018-05-07T00:53:50.971Z,1.60
2018-05-07T00:56:54.241Z,1.50
2018-05-07T00:59:57.755Z,1.50
2018-05-07T01:03:01.398Z,1.30
2018-05-07T01:06:04.767Z,1.80
2018-05-07T01:09:08.143Z,1.87
2018-05-07T01:12:11.462Z,1.80
2018-05-07T01:15:14.894Z,1.50
2018-05-07T01:18:19.250Z,1.70
2018-05-07T01:21:22.576Z,1.80
2018-05-07T01:24:25.905Z,1.40
2018-05-07T01:27:29.668Z,1.27
2018-05-07T01:30:33.977Z,1.53
2018-05-07T01:33:37.399Z,1.63
2018-05-07T01:36:41.703Z,1.40
2018-05-07T01:39:45.007Z,1.60
2018-05-07T01:42:48.341Z,1.40
2018-05-07T01:45:51.689Z,1.70
2018-05-07T01:48:56.044Z,1.73
2018-05-07T01:52:03.595Z,1.60
2018-05-07T01:55:06.844Z,1.50
2018-05-07T01:58:10.122Z,1.50
2018-05-07T02:01:13.525Z,1.50
2018-05-07T02:04:16.868Z,1.83
2018-05-07T02:07:20.148Z,1.50
2018-05-07T02:10:23.467Z,1.50
2018-05-07T02:13:26.837Z,1.70
2018-05-07T02:16:31.876Z,1.83
2018-05-07T02:19:35.287Z,1.47
2018-05-07T02:22:38.658Z,1.73
2018-05-07T02:25:42.759Z,1.73
2018-05-07T02:28:45.908Z,1.60
2018-05-07T02:31:49.281Z,1.40
2018-05-07T02:34:52.643Z,1.50
2018-05-07T02:37:55.952Z,1.73
2018-05-07T02:40:59.352Z,1.70
2018-05-07T02:44:03.168Z,1.60
2018-05-07T02:47:06.524Z,1.57
2018-05-07T02:50:09.863Z,1.87
2018-05-07T02:53:13.132Z,1.63
2018-05-07T02:56:16.343Z,1.63
2018-05-07T02:59:19.736Z,1.60
2018-05-07T03:02:23.080Z,1.60
2018-05-07T03:05:26.328Z,1.70
2018-05-07T03:08:29.732Z,1.60
2018-05-07T03:11:34.029Z,1.70
2018-05-07T03:14:37.383Z,1.70
2018-05-07T03:17:40.767Z,1.47
2018-05-07T03:20:44.059Z,1.80
2018-05-07T03:23:49.379Z,1.70
2018-05-07T03:26:52.811Z,2.07
2018-05-07T03:29:56.341Z,1.90
2018-05-07T03:32:59.711Z,1.70
2018-05-07T03:36:04.247Z,1.50
2018-05-07T03:39:07.661Z,1.67
2018-05-07T03:42:11.922Z,1.90
2018-05-07T03:45:15.307Z,1.90
2018-05-07T06:04:09.396Z,2.00
2018-05-07T06:07:12.799Z,1.53
2018-05-07T06:10:16.284Z,2.10
2018-05-07T06:13:19.655Z,2.13
2018-05-07T06:16:23.115Z,2.37
2018-05-07T06:19:26.468Z,1.90
2018-05-07T06:22:29.884Z,2.30
2018-05-07T06:25:33.282Z,1.90
2018-05-07T06:28:36.560Z,2.10
2018-05-07T06:31:39.874Z,1.90
2018-05-07T06:34:43.719Z,2.20
2018-05-07T06:37:47.038Z,2.23
2018-05-07T06:40:50.462Z,1.80
2018-05-07T06:43:53.848Z,2.10
2018-05-07T06:46:58.183Z,1.80
2018-05-07T06:50:02.520Z,1.73
2018-05-07T06:53:05.874Z,1.90
2018-05-07T06:56:09.116Z,1.93
2018-05-07T06:59:12.388Z,2.00
2018-05-07T07:02:16.776Z,1.97
2018-05-07T07:05:20.022Z,2.00
2018-05-07T07:08:23.419Z,2.10
2018-05-07T07:11:26.589Z,2.33
2018-05-07T07:14:30.135Z,2.27
2018-05-07T07:17:33.586Z,2.00
2018-05-07T07:20:36.907Z,2.10
2018-05-07T07:23:40.334Z,2.20
2018-05-07T07:26:43.672Z,2.07
2018-05-07T07:29:47.051Z,1.93
2018-05-07T07:32:50.470Z,2.10
2018-05-07T07:35:54.556Z,2.37
2018-05-07T07:38:57.961Z,2.10
2018-05-07T07:42:01.283Z,1.80
2018-05-07T07:45:04.589Z,1.80
2018-05-07T07:48:07.895Z,2.13
2018-05-07T07:51:11.375Z,2.27
2018-05-07T07:54:14.696Z,1.90
2018-05-07T07:57:17.999Z,2.33
2018-05-07T08:00:21.286Z,2.30
2018-05-07T08:03:25.288Z,1.87
2018-05-07T08:06:28.513Z,2.30
2018-05-07T08:09:31.880Z,2.20
2018-05-07T08:12:35.259Z,2.03
2018-05-07T08:15:38.606Z,2.00
2018-05-07T08:18:41.949Z,2.20
2018-05-07T08:21:45.308Z,2.10
2018-05-07T08:24:48.633Z,2.00
2018-05-07T08:27:52.445Z,1.93
2018-05-07T08:30:55.875Z,2.10
2018-05-07T08:33:59.166Z,2.30
2018-05-07T08:37:02.584Z,2.00
2018-05-07T08:40:05.875Z,2.20
2018-05-07T08:43:10.249Z,2.10
2018-05-07T08:46:13.567Z,2.27
2018-05-07T08:49:17.223Z,2.27
2018-05-07T08:52:20.527Z,2.13
2018-05-07T08:55:24.061Z,2.30
2018-05-07T08:58:27.507Z,1.90
2018-05-07T09:01:30.795Z,2.47
2018-05-07T09:04:34.388Z,2.40
2018-05-07T09:07:37.727Z,2.57
2018-05-07T09:10:41.137Z,2.10
2018-05-07T09:13:44.487Z,2.17
2018-05-07T09:16:47.861Z,2.03
2018-05-07T09:19:51.265Z,2.37
2018-05-07T09:22:55.503Z,2.20
2018-05-07T09:25:58.843Z,2.10
2018-05-07T09:29:02.212Z,2.73
2018-05-07T09:32:05.543Z,2.03
2018-05-07T09:35:08.916Z,2.40
2018-05-07T09:38:12.207Z,2.27
2018-05-07T09:41:15.547Z,2.20
2018-05-07T09:44:18.986Z,2.07
2018-05-07T09:47:22.310Z,2.23
2018-05-07T09:50:26.245Z,2.30
2018-05-07T09:53:29.703Z,1.87
2018-05-07T09:56:33.581Z,2.13
2018-05-07T09:59:36.837Z,2.10
2018-05-07T10:02:40.187Z,2.17
2018-05-07T10:05:43.659Z,2.23
2018-05-07T10:08:46.955Z,2.23
2018-05-07T10:11:52.301Z,2.07
2018-05-07T10:14:56.643Z,2.60
2018-05-07T10:17:59.791Z,2.57
2018-05-07T10:21:03.120Z,2.43
2018-05-07T10:24:06.622Z,2.27
2018-05-07T10:27:09.785Z,2.20
2018-05-07T10:30:13.059Z,2.00
2018-05-07T10:33:16.354Z,2.30
2018-05-07T10:36:19.708Z,2.20
2018-05-07T10:39:23.001Z,2.07
2018-05-07T10:42:27.281Z,2.30
2018-05-07T10:45:30.677Z,2.00
2018-05-07T10:48:34.024Z,1.77
2018-05-07T10:51:37.368Z,2.00
2018-05-07T10:54:40.766Z,1.57
2018-05-07T10:57:43.947Z,2.13
2018-05-07T11:00:47.335Z,2.13
2018-05-07T11:03:50.615Z,2.30
2018-05-07T11:06:54.289Z,2.13
2018-05-07T11:09:57.560Z,1.90
2018-05-07T11:13:00.927Z,2.03
2018-05-07T11:16:04.162Z,2.00
2018-05-07T11:19:07.401Z,1.70
2018-05-07T11:22:10.717Z,1.80
2018-05-07T11:25:13.944Z,2.20
2018-05-07T11:28:17.259Z,1.73
2018-05-07T11:31:20.637Z,1.97
2018-05-07T11:34:24.682Z,3.20
2018-05-07T11:37:27.963Z,2.00
2018-05-07T11:40:31.237Z,1.90
2018-05-07T11:43:34.427Z,1.90
2018-05-07T11:46:45.483Z,2.37
2018-05-07T11:49:48.720Z,1.93
2018-05-07T11:52:51.964Z,2.00
2018-05-07T11:55:56.135Z,1.90
2018-05-07T11:58:59.490Z,1.80
2018-05-07T12:02:02.838Z,2.10
2018-05-07T12:05:06.058Z,2.23
2018-05-07T12:08:09.350Z,1.87
2018-05-07T12:11:12.625Z,2.00
2018-05-07T12:14:16.010Z,1.80
2018-05-07T12:17:19.189Z,1.80
2018-05-07T12:20:22.481Z,1.70
2018-05-07T12:23:26.616Z,1.80
2018-05-07T12:26:29.896Z,2.10
2018-05-07T12:29:33.189Z,2.07
2018-05-07T12:32:36.553Z,1.97
2018-05-07T12:35:39.921Z,2.13
2018-05-07T12:38:43.111Z,1.90
2018-05-07T12:41:46.475Z,2.00
2018-05-07T12:44:49.771Z,1.70
2018-05-07T12:47:53.102Z,1.80
2018-05-07T12:50:56.492Z,1.73
2018-05-07T12:54:00.615Z,1.77
2018-05-07T12:57:03.816Z,1.77
2018-05-07T13:00:07.359Z,1.80
2018-05-07T13:03:10.788Z,1.90
2018-05-07T13:06:14.039Z,1.90
2018-05-07T13:09:17.379Z,1.90
2018-05-07T13:12:25.810Z,2.07
2018-05-07T13:15:29.459Z,1.80
2018-05-07T13:18:32.610Z,1.97
2018-05-07T13:21:35.903Z,1.77
2018-05-07T13:24:41.444Z,1.50
2018-05-07T13:27:44.785Z,1.63
2018-05-07T13:30:48.159Z,1.70
2018-05-07T13:33:51.513Z,1.80
2018-05-07T13:36:55.532Z,1.67
2018-05-07T13:39:59.017Z,1.90
2018-05-07T13:43:02.497Z,1.90
2018-05-07T13:46:05.897Z,1.60
2018-05-07T13:49:09.291Z,1.90
2018-05-07T13:52:12.670Z,1.80
2018-05-07T13:55:17.410Z,1.67
2018-05-07T13:58:20.659Z,1.50
2018-05-07T14:01:23.993Z,1.60
2018-05-07T14:04:28.246Z,1.43
2018-05-07T14:07:33.667Z,1.67
2018-05-07T14:10:37.045Z,1.93
2018-05-07T14:13:40.525Z,1.50
2018-05-07T14:16:43.713Z,1.47
2018-05-07T14:19:47.074Z,1.70
2018-05-07T14:22:50.299Z,1.70
2018-05-07T14:25:53.640Z,2.10
2018-05-07T14:28:56.934Z,1.70
2018-05-07T14:32:00.240Z,1.60
2018-05-07T14:35:03.634Z,1.60
2018-05-07T14:38:08.099Z,2.20
2018-05-07T14:41:11.560Z,1.83
2018-05-07T14:44:14.845Z,2.00
2018-05-07T14:47:18.230Z,2.03
2018-05-07T14:50:21.680Z,1.70
2018-05-07T14:53:24.964Z,2.00
2018-05-07T14:56:28.126Z,2.10
2018-05-07T14:59:32.421Z,1.80
2018-05-07T15:02:36.417Z,1.80
2018-05-07T15:05:39.755Z,1.90
2018-05-07T15:08:43.138Z,1.80
2018-05-07T15:11:46.509Z,1.83
2018-05-07T15:14:49.785Z,1.63
2018-05-07T15:17:52.993Z,1.73
2018-05-07T15:20:57.315Z,2.00
2018-05-07T15:24:00.720Z,1.70
2018-05-07T15:27:03.944Z,1.60
2018-05-07T15:30:07.320Z,1.80
2018-05-07T15:33:18.784Z,1.60
2018-05-07T15:36:22.070Z,1.90
2018-05-07T15:39:25.276Z,1.67
2018-05-07T15:42:29.575Z,1.70
2018-05-07T15:45:32.796Z,1.60
2018-05-07T15:48:35.988Z,1.90
2018-05-07T15:51:39.427Z,1.80
2018-05-07T15:54:42.691Z,1.70
2018-05-07T15:57:47.227Z,1.63
2018-05-07T16:00:50.588Z,1.63
2018-05-07T16:03:53.917Z,1.70
2018-05-07T16:06:58.353Z,1.80
2018-05-07T16:10:02.630Z,1.87
2018-05-07T16:13:05.896Z,1.73
2018-05-07T16:16:11.346Z,1.90
2018-05-07T16:19:14.771Z,2.00
2018-05-07T16:22:18.188Z,1.80
2018-05-07T16:25:21.487Z,1.87
2018-05-07T16:28:25.096Z,2.00
2018-05-07T16:31:29.364Z,1.80
2018-05-07T16:34:32.733Z,2.00
2018-05-07T16:37:36.063Z,1.80
2018-05-07T16:40:39.499Z,1.80
2018-05-07T16:43:42.844Z,1.50
2018-05-07T16:46:46.156Z,1.77
2018-05-07T16:49:49.831Z,1.50
2018-05-07T16:52:53.247Z,1.70
2018-05-07T16:55:56.520Z,1.90
2018-05-07T16:58:59.952Z,1.63
2018-05-07T17:02:03.291Z,1.80
2018-05-07T17:05:07.888Z,1.90
2018-05-07T17:08:11.266Z,1.93
2018-05-07T17:11:14.466Z,1.80
2018-05-07T17:14:17.644Z,1.70
2018-05-07T17:17:21.044Z,1.97
2018-05-07T17:20:24.529Z,2.17
2018-05-07T17:23:28.811Z,1.97
2018-05-07T17:26:32.196Z,1.73
2018-05-07T17:29:36.968Z,1.90
2018-05-07T17:32:41.513Z,1.87
2018-05-07T17:35:44.937Z,1.90
2018-05-07T17:38:48.300Z,2.00
2018-05-07T17:41:51.637Z,1.70
2018-05-07T17:45:07.781Z,1.70
2018-05-07T17:48:22.475Z,1.60
2018-05-07T17:51:25.944Z,1.70
2018-05-07T17:54:29.359Z,1.90
2018-05-07T17:57:32.745Z,2.00
2018-05-07T18:00:37.076Z,2.07
2018-05-07T18:03:41.888Z,3.03
2018-05-07T18:06:45.198Z,3.60
2018-05-07T18:09:48.576Z,1.90
2018-05-07T18:12:51.952Z,5.10
2018-05-07T18:15:55.272Z,1.57
2018-05-07T18:18:58.657Z,1.67
2018-05-07T18:22:02.055Z,1.87
2018-05-07T18:25:05.423Z,1.70
2018-05-07T18:28:09.001Z,1.37
2018-05-07T18:31:13.380Z,1.80
2018-05-07T18:34:16.751Z,1.60
2018-05-07T18:37:20.071Z,2.03
2018-05-07T18:40:23.425Z,1.73
2018-05-07T18:43:26.755Z,1.90
2018-05-07T18:46:30.071Z,2.40
2018-05-07T18:49:33.470Z,2.00
2018-05-07T18:52:37.585Z,2.00
2018-05-07T18:55:40.954Z,1.90
2018-05-07T18:58:44.288Z,2.10
2018-05-07T19:01:47.710Z,1.90
2018-05-07T19:04:51.610Z,2.20
2018-05-07T19:07:54.773Z,2.30
2018-05-07T19:10:58.092Z,2.57
2018-05-07T19:14:01.448Z,2.37
2018-05-07T19:17:04.727Z,1.90
2018-05-07T19:20:09.080Z,2.20
2018-05-07T19:23:12.352Z,2.30
2018-05-07T19:26:15.776Z,2.03
2018-05-07T19:29:19.107Z,2.10
2018-05-07T19:32:22.380Z,2.20
2018-05-07T19:35:25.719Z,3.10
2018-05-07T19:38:29.120Z,2.77
2018-05-07T19:41:32.699Z,2.37
2018-05-07T19:44:36.766Z,2.37
2018-05-07T19:47:40.166Z,2.50
2018-05-07T19:50:43.538Z,2.60
2018-05-07T19:53:46.941Z,3.10
2018-05-07T19:56:50.346Z,2.63
2018-05-07T19:59:54.585Z,2.30
2018-05-07T20:02:57.876Z,2.40
2018-05-07T20:06:01.154Z,2.60
2018-05-07T20:09:04.971Z,2.20
2018-05-07T20:12:09.200Z,3.00
2018-05-07T20:15:12.492Z,3.30
2018-05-07T20:18:15.799Z,3.10
2018-05-07T20:21:19.107Z,2.97
2018-05-07T20:24:22.459Z,3.13
2018-05-07T20:27:25.827Z,2.70
2018-05-07T20:30:29.197Z,2.57
2018-05-07T20:33:33.420Z,2.87
2018-05-07T20:36:37.225Z,2.93
2018-05-07T20:39:40.599Z,3.27
2018-05-07T20:42:43.899Z,3.00
2018-05-07T20:45:47.194Z,3.27
2018-05-07T20:48:50.552Z,3.00
2018-05-07T20:51:53.770Z,3.00
2018-05-07T20:54:57.191Z,3.03
2018-05-07T20:58:00.561Z,3.60
2018-05-07T21:01:04.136Z,3.13
2018-05-07T21:04:09.400Z,3.20
2018-05-07T21:07:13.842Z,3.07
2018-05-07T21:10:17.368Z,3.00
2018-05-07T21:13:21.810Z,2.93
2018-05-07T21:16:25.111Z,3.03
2018-05-07T21:19:28.473Z,2.67
2018-05-07T21:22:32.545Z,2.63
2018-05-07T21:25:35.853Z,2.37
2018-05-07T21:28:40.456Z,2.40
2018-05-07T21:31:43.764Z,2.53
2018-05-07T21:34:48.792Z,2.77
2018-05-07T21:37:52.500Z,2.60
2018-05-07T21:40:56.968Z,2.90
2018-05-07T21:44:00.383Z,2.50
2018-05-07T21:47:03.749Z,2.70
2018-05-07T21:50:07.528Z,2.90
2018-05-07T21:53:11.341Z,2.60
2018-05-07T21:56:14.643Z,2.43
2018-05-07T21:59:19.037Z,2.70
2018-05-07T22:02:22.377Z,2.50
2018-05-07T22:05:25.679Z,2.40
2018-05-07T22:08:29.108Z,2.57
2018-05-07T22:11:32.487Z,2.50
2018-05-07T22:14:36.011Z,2.30
2018-05-07T22:17:40.191Z,2.40
2018-05-07T22:20:43.503Z,2.30
2018-05-07T22:23:46.905Z,2.50
2018-05-07T22:26:50.260Z,2.20
2018-05-07T22:29:53.619Z,2.50
2018-05-07T22:32:57.003Z,2.30
2018-05-07T22:36:00.425Z,3.17
2018-05-07T22:39:03.812Z,2.70
2018-05-07T22:42:07.882Z,2.70
2018-05-07T22:45:11.329Z,2.80
2018-05-07T22:48:14.639Z,2.33
2018-05-07T22:51:17.857Z,2.80
2018-05-07T22:54:21.187Z,2.60
2018-05-07T22:57:24.531Z,2.60
2018-05-07T23:00:28.277Z,2.60
2018-05-07T23:03:31.679Z,2.43
2018-05-07T23:06:34.880Z,2.83
2018-05-07T23:09:38.221Z,2.50
2018-05-07T23:12:41.519Z,2.60
2018-05-07T23:15:44.921Z,2.60
2018-05-07T23:18:48.791Z,2.60
2018-05-07T23:21:52.294Z,2.20
2018-05-07T23:24:56.024Z,2.57
2018-05-07T23:27:59.444Z,2.00
2018-05-07T23:31:02.745Z,1.77
2018-05-07T23:34:06.119Z,1.80
2018-05-07T23:37:10.363Z,1.80
2018-05-07T23:40:13.583Z,1.93
2018-05-07T23:43:16.933Z,1.60
2018-05-07T23:46:20.348Z,1.90
2018-05-07T23:49:23.596Z,1.80
2018-05-07T23:52:27.040Z,1.90
2018-05-07T23:55:30.376Z,1.80
2018-05-07T23:58:33.704Z,1.90
